Time;durP1;ratioP1;P1;durP2;ratioP2;P2;SDS_P1;SDS_P2;PMS_P1;PMS_P2;Temp;Humidity;BMP_temperature;BMP_pressure;BME280_temperature;BME280_humidity;BME280_pressure;Samples;Min_cycle;Max_cycle;Signal;HPM_P1;HPM_P2
2022/05/27 00:01:32;;;;;;;91.72;52.95;;;20.40;60.10;;;;;;4914201;28;95826;-43
2022/05/27 00:03:59;;;;;;;90.20;53.15;;;20.40;60.00;;;;;;4923545;28;96311;-44
2022/05/27 00:06:26;;;;;;;91.13;53.05;;;20.40;60.30;;;;;;4918250;28;96097;-44
2022/05/27 00:08:52;;;;;;;89.95;52.80;;;20.40;59.90;;;;;;4911918;28;95107;-43
2022/05/27 00:11:18;;;;;;;90.10;52.58;;;20.30;60.00;;;;;;4913249;28;94777;-43
2022/05/27 00:13:44;;;;;;;90.22;52.83;;;20.30;60.10;;;;;;4911085;28;98865;-41
2022/05/27 00:16:11;;;;;;;90.22;52.85;;;20.30;60.90;;;;;;4914878;28;95736;-42
2022/05/27 00:18:37;;;;;;;90.88;52.97;;;20.30;60.10;;;;;;4919773;28;95008;-41
2022/05/27 00:21:04;;;;;;;90.63;53.22;;;20.30;60.30;;;;;;4918965;28;95928;-41
2022/05/27 00:23:30;;;;;;;93.80;53.20;;;20.30;60.20;;;;;;4914223;28;95747;-42
2022/05/27 00:25:56;;;;;;;93.68;52.92;;;20.30;60.10;;;;;;4924455;28;95781;-41
2022/05/27 00:28:22;;;;;;;89.45;52.78;;;20.30;60.20;;;;;;4921657;28;96486;-42
2022/05/27 00:30:48;;;;;;;88.90;52.60;;;20.30;60.20;;;;;;4924485;28;95176;-42
2022/05/27 00:33:13;;;;;;;89.28;52.78;;;20.30;60.10;;;;;;4912983;28;96866;-41
2022/05/27 00:35:39;;;;;;;90.22;52.70;;;20.30;60.10;;;;;;4913117;28;100198;-42
2022/05/27 00:38:06;;;;;;;90.75;52.63;;;20.30;60.10;;;;;;4912906;28;94848;-43
2022/05/27 00:40:46;;;;;;;92.22;52.88;;;20.30;59.90;;;;;;4915129;28;96762;-43
2022/05/27 00:43:12;;;;;;;89.23;52.97;;;20.20;59.90;;;;;;4906442;28;96940;-43
2022/05/27 00:45:41;;;;;;;89.50;53.05;;;20.20;60.10;;;;;;4916722;28;100993;-41
2022/05/27 00:48:13;;;;;;;89.38;52.72;;;20.20;60.30;;;;;;4907071;28;95246;-42
2022/05/27 00:50:41;;;;;;;91.63;52.83;;;20.20;60.20;;;;;;4908903;28;94885;-44
2022/05/27 00:53:09;;;;;;;92.03;53.05;;;20.20;60.10;;;;;;4907063;28;96234;-43
2022/05/27 00:55:41;;;;;;;90.53;53.03;;;20.20;60.40;;;;;;4906410;28;95726;-41
2022/05/27 00:58:09;;;;;;;91.00;52.97;;;20.20;60.20;;;;;;4910427;28;95330;-44
2022/05/27 01:00:36;;;;;;;89.68;52.63;;;20.20;60.40;;;;;;4907953;28;97114;-42
2022/05/27 01:03:04;;;;;;;90.32;52.97;;;20.20;60.20;;;;;;4912365;28;95737;-41
2022/05/27 01:05:29;;;;;;;88.53;52.90;;;20.20;60.00;;;;;;4914739;28;97071;-41
2022/05/27 01:07:58;;;;;;;90.88;52.88;;;20.20;60.00;;;;;;4910593;28;95789;-42
2022/05/27 01:10:25;;;;;;;90.18;52.78;;;20.20;60.20;;;;;;4916212;28;94592;-42
2022/05/27 01:13:11;;;;;;;88.90;52.72;;;20.20;60.40;;;;;;4917027;28;97224;-42
2022/05/27 01:15:49;;;;;;;89.20;52.75;;;20.20;60.20;;;;;;4913729;28;101547;-43
2022/05/27 01:21:58;;;;;;;89.22;52.67;;;20.20;59.80;;;;;;4909717;28;96653;-44
2022/05/27 01:24:47;;;;;;;91.35;52.83;;;20.20;60.00;;;;;;4912825;28;97059;-41
2022/05/27 01:27:36;;;;;;;88.35;52.28;;;20.20;59.80;;;;;;4906042;28;97196;-41
2022/05/27 01:30:16;;;;;;;88.60;52.60;;;20.20;60.20;;;;;;4916995;28;96763;-43
2022/05/27 01:33:27;;;;;;;89.43;52.50;;;20.20;60.20;;;;;;4921983;28;101608;-42
2022/05/27 01:36:01;;;;;;;90.63;52.60;;;20.20;60.00;;;;;;4932940;28;95575;-41
2022/05/27 01:38:47;;;;;;;89.55;52.80;;;20.20;59.90;;;;;;4914705;28;96889;-41
2022/05/27 01:41:28;;;;;;;90.78;52.55;;;20.20;59.90;;;;;;4918098;28;96656;-41
2022/05/27 01:44:08;;;;;;;90.50;52.75;;;20.20;59.80;;;;;;4904369;28;98323;-41
2022/05/27 01:46:37;;;;;;;88.93;52.58;;;20.20;60.10;;;;;;4906343;28;97042;-41
2022/05/27 01:49:33;;;;;;;92.63;52.88;;;20.20;60.00;;;;;;4908340;28;100683;-42
2022/05/27 01:52:30;;;;;;;88.53;52.65;;;20.20;60.00;;;;;;4915214;28;97602;-43
2022/05/27 01:55:14;;;;;;;88.18;52.55;;;20.20;60.20;;;;;;4906400;28;96027;-41
2022/05/27 01:57:46;;;;;;;87.50;52.33;;;20.10;60.20;;;;;;4910901;28;95861;-43
2022/05/27 02:00:19;;;;;;;88.50;52.75;;;20.10;60.20;;;;;;4913640;28;95759;-41
2022/05/27 02:02:52;;;;;;;92.15;53.08;;;20.10;60.10;;;;;;4915430;28;95493;-41
2022/05/27 02:05:31;;;;;;;89.80;52.63;;;20.10;59.80;;;;;;4912438;28;94769;-43
2022/05/27 02:08:05;;;;;;;88.82;52.60;;;20.20;60.10;;;;;;4910426;28;97871;-44
2022/05/27 02:10:59;;;;;;;89.47;52.30;;;20.10;60.20;;;;;;4891540;28;101850;-42
2022/05/27 02:13:38;;;;;;;88.78;52.45;;;20.20;60.10;;;;;;4904015;28;97253;-42
2022/05/27 02:16:07;;;;;;;89.25;52.55;;;20.10;59.80;;;;;;4907413;28;95106;-45
2022/05/27 02:18:54;;;;;;;89.72;52.53;;;20.10;60.20;;;;;;4908974;28;96145;-41
2022/05/27 02:21:29;;;;;;;89.35;52.58;;;20.10;59.80;;;;;;4915829;28;95931;-41
2022/05/27 02:24:05;;;;;;;88.43;52.45;;;20.10;60.00;;;;;;4905091;28;97643;-42
2022/05/27 02:26:37;;;;;;;90.32;52.65;;;20.10;60.00;;;;;;4906812;28;96948;-41
2022/05/27 02:29:11;;;;;;;88.55;52.55;;;20.10;60.00;;;;;;4910181;28;95761;-43
2022/05/27 02:31:40;;;;;;;90.43;52.53;;;20.00;60.00;;;;;;4903384;28;97735;-42
2022/05/27 02:37:14;;;;;;;89.82;52.83;;;20.10;60.30;;;;;;4918778;28;95762;-44
2022/05/27 02:39:40;;;;;;;90.65;52.60;;;20.10;60.20;;;;;;4910419;28;96607;-41
2022/05/27 02:42:27;;;;;;;90.75;53.13;;;20.00;60.30;;;;;;4910367;28;97347;-41
2022/05/27 02:45:19;;;;;;;91.28;52.72;;;20.00;60.20;;;;;;4909472;28;99155;-41
2022/05/27 02:48:06;;;;;;;88.32;52.47;;;20.10;60.00;;;;;;4911283;28;95861;-41
2022/05/27 02:50:49;;;;;;;89.50;52.90;;;20.00;60.40;;;;;;4911305;28;96587;-41
2022/05/27 02:53:30;;;;;;;89.43;52.88;;;20.00;60.30;;;;;;4910011;28;95834;-41
2022/05/27 02:56:13;;;;;;;90.90;52.85;;;20.00;60.20;;;;;;4906726;28;97040;-43
2022/05/27 02:58:39;;;;;;;91.32;52.80;;;20.00;60.20;;;;;;4910905;28;95126;-44
2022/05/27 03:01:05;;;;;;;89.45;52.85;;;20.00;60.20;;;;;;4904512;28;95348;-43
2022/05/27 03:03:32;;;;;;;88.78;52.63;;;20.00;60.40;;;;;;4906362;28;107200;-42
2022/05/27 03:06:14;;;;;;;91.85;53.17;;;20.00;60.30;;;;;;4916779;28;97476;-42
2022/05/27 03:08:47;;;;;;;88.82;52.75;;;20.00;60.40;;;;;;4905671;28;96775;-42
2022/05/27 03:11:18;;;;;;;89.50;52.72;;;20.00;60.30;;;;;;4910095;28;96514;-41
2022/05/27 03:14:05;;;;;;;89.63;52.90;;;20.00;60.30;;;;;;4915503;28;95335;-41
2022/05/27 03:17:11;;;;;;;88.32;52.35;;;20.10;60.40;;;;;;4910442;28;97596;-41
2022/05/27 03:19:55;;;;;;;88.93;52.85;;;20.00;60.30;;;;;;4903372;28;102371;-43
2022/05/27 03:22:36;;;;;;;92.03;53.13;;;20.00;60.40;;;;;;4904330;28;95050;-41
2022/05/27 03:25:12;;;;;;;87.47;52.47;;;19.90;60.40;;;;;;4911341;28;97241;-41
2022/05/27 03:27:41;;;;;;;92.15;53.28;;;19.90;60.50;;;;;;4918508;28;95125;-43
2022/05/27 03:30:20;;;;;;;90.43;52.83;;;19.90;60.50;;;;;;4908335;28;100681;-43
2022/05/27 03:32:49;;;;;;;90.68;53.30;;;19.90;60.50;;;;;;4908007;28;96361;-43
2022/05/27 03:35:33;;;;;;;89.90;52.88;;;20.00;60.60;;;;;;4906608;28;97714;-42
2022/05/27 03:38:10;;;;;;;90.50;52.78;;;19.90;60.60;;;;;;4914752;28;95474;-45
2022/05/27 03:40:58;;;;;;;89.82;52.97;;;19.90;60.70;;;;;;4894927;28;96854;-44
2022/05/27 03:43:26;;;;;;;93.45;53.20;;;19.90;60.70;;;;;;4911405;28;100552;-43
2022/05/27 03:45:55;;;;;;;89.95;52.88;;;19.90;60.70;;;;;;4905166;28;97013;-43
2022/05/27 03:48:22;;;;;;;90.82;52.80;;;19.90;60.70;;;;;;4914324;28;95096;-43
2022/05/27 03:50:50;;;;;;;90.35;53.00;;;19.90;60.80;;;;;;4912097;28;94218;-43
2022/05/27 03:53:17;;;;;;;88.90;52.80;;;19.90;61.50;;;;;;4910799;28;95881;-42
2022/05/27 03:55:44;;;;;;;91.05;52.80;;;19.90;60.70;;;;;;4908783;28;95885;-42
2022/05/27 03:58:17;;;;;;;92.07;53.33;;;19.90;60.70;;;;;;4916623;28;98308;-41
2022/05/27 04:00:43;;;;;;;90.88;52.90;;;19.90;60.60;;;;;;4911444;28;94829;-41
2022/05/27 04:03:11;;;;;;;92.85;53.50;;;19.90;60.70;;;;;;4909686;28;95342;-45
2022/05/27 04:05:38;;;;;;;89.85;53.08;;;19.90;60.60;;;;;;4921173;28;94950;-41
2022/05/27 04:08:04;;;;;;;88.88;52.72;;;19.90;60.60;;;;;;4907095;28;95698;-41
2022/05/27 04:10:30;;;;;;;90.65;52.90;;;19.90;60.70;;;;;;4910009;28;95394;-43
2022/05/27 04:12:56;;;;;;;90.43;53.03;;;19.90;60.60;;;;;;4913900;28;96739;-44
2022/05/27 04:15:22;;;;;;;89.57;52.67;;;20.00;60.60;;;;;;4914086;28;94922;-43
2022/05/27 04:17:47;;;;;;;89.63;52.63;;;19.90;60.50;;;;;;4915503;28;98342;-44
2022/05/27 04:20:15;;;;;;;91.53;52.97;;;19.90;60.50;;;;;;4913422;28;95287;-43
2022/05/27 04:22:41;;;;;;;91.70;53.10;;;19.90;60.50;;;;;;4911258;28;96998;-41
2022/05/27 04:25:08;;;;;;;89.03;52.67;;;19.90;60.60;;;;;;4914531;28;96254;-44
2022/05/27 04:27:34;;;;;;;92.32;53.35;;;19.90;60.60;;;;;;4907546;28;96615;-42
2022/05/27 04:30:00;;;;;;;91.05;53.33;;;19.90;60.60;;;;;;4918063;28;95096;-42
2022/05/27 04:32:26;;;;;;;90.18;53.15;;;19.90;60.70;;;;;;4906949;28;96167;-41
2022/05/27 04:34:53;;;;;;;89.90;52.83;;;19.90;60.60;;;;;;4905757;28;96321;-41
2022/05/27 04:37:20;;;;;;;90.72;52.88;;;19.90;60.60;;;;;;4908471;28;95862;-43
2022/05/27 04:39:45;;;;;;;90.57;52.88;;;19.90;60.60;;;;;;4910566;28;95061;-41
2022/05/27 04:42:11;;;;;;;91.40;53.03;;;19.90;61.20;;;;;;4914786;28;100573;-41
2022/05/27 04:44:37;;;;;;;89.80;53.25;;;19.90;60.60;;;;;;4912568;28;95205;-44
2022/05/27 04:47:04;;;;;;;88.75;52.80;;;19.90;60.60;;;;;;4912702;28;96782;-42
2022/05/27 04:52:14;;;;;;;90.20;52.70;;;19.90;60.50;;;;;;4918025;28;100052;-43
2022/05/27 04:54:40;;;;;;;90.93;53.03;;;19.90;60.60;;;;;;4905501;28;95703;-44
2022/05/27 04:57:06;;;;;;;88.95;52.88;;;19.90;60.60;;;;;;4914093;28;102287;-41
2022/05/27 04:59:36;;;;;;;91.43;53.00;;;19.90;60.50;;;;;;4909281;28;95630;-43
2022/05/27 05:02:05;;;;;;;91.95;53.63;;;19.90;60.50;;;;;;4911318;28;96264;-42
2022/05/27 05:04:31;;;;;;;89.30;52.92;;;19.90;60.50;;;;;;4912473;28;94583;-42
2022/05/27 05:07:02;;;;;;;89.55;52.97;;;20.00;60.50;;;;;;4921816;28;94690;-41
2022/05/27 05:09:28;;;;;;;87.63;52.58;;;20.00;60.60;;;;;;4910024;28;95005;-44
2022/05/27 05:11:54;;;;;;;89.30;52.88;;;19.90;60.60;;;;;;4909979;28;96834;-41
2022/05/27 05:14:19;;;;;;;88.70;52.80;;;20.00;60.60;;;;;;4913601;28;96472;-43
2022/05/27 05:16:45;;;;;;;90.95;53.20;;;20.00;60.50;;;;;;4912659;28;97047;-41
2022/05/27 05:19:11;;;;;;;89.10;52.72;;;20.00;60.40;;;;;;4906688;28;95848;-43
2022/05/27 05:21:36;;;;;;;91.38;53.22;;;20.00;60.40;;;;;;4904545;28;97749;-41
2022/05/27 05:24:03;;;;;;;92.25;53.38;;;20.00;60.40;;;;;;4907577;28;95401;-41
2022/05/27 05:26:29;;;;;;;90.10;52.80;;;20.00;60.40;;;;;;4912334;28;95695;-44
2022/05/27 05:28:54;;;;;;;88.72;53.05;;;20.00;60.30;;;;;;4908272;28;97488;-41
2022/05/27 05:31:20;;;;;;;90.32;53.22;;;20.00;60.20;;;;;;4906619;28;96555;-44
2022/05/27 05:33:46;;;;;;;92.15;53.53;;;20.00;60.20;;;;;;4913895;28;95576;-43
2022/05/27 05:36:11;;;;;;;90.45;53.42;;;20.00;60.30;;;;;;4901414;28;96479;-42
2022/05/27 05:38:37;;;;;;;91.60;53.33;;;20.00;60.20;;;;;;4910806;28;95572;-41
2022/05/27 05:41:05;;;;;;;91.60;53.40;;;20.00;60.30;;;;;;4900914;28;96343;-41
2022/05/27 05:43:31;;;;;;;91.53;53.47;;;20.00;60.40;;;;;;4909066;28;101449;-43
2022/05/27 05:45:56;;;;;;;90.10;52.92;;;20.00;60.20;;;;;;4902543;28;95246;-41
2022/05/27 05:48:22;;;;;;;88.75;52.78;;;20.00;60.20;;;;;;4906532;28;95295;-41
2022/05/27 05:50:47;;;;;;;93.18;53.58;;;20.00;60.20;;;;;;4909534;28;100069;-41
2022/05/27 05:53:13;;;;;;;89.22;53.03;;;20.00;60.30;;;;;;4909740;28;96150;-44
2022/05/27 05:55:39;;;;;;;89.28;53.00;;;20.10;60.00;;;;;;4905098;28;97734;-42
2022/05/27 05:58:04;;;;;;;91.68;53.35;;;20.10;60.00;;;;;;4912517;28;96038;-44
2022/05/27 06:00:30;;;;;;;91.75;52.92;;;20.10;60.10;;;;;;4908973;28;98173;-41
2022/05/27 06:02:56;;;;;;;88.68;52.75;;;20.10;60.00;;;;;;4914241;28;96101;-44
2022/05/27 06:05:23;;;;;;;95.60;53.67;;;20.10;59.90;;;;;;4908571;28;96765;-42
2022/05/27 06:07:50;;;;;;;92.30;53.15;;;20.10;59.90;;;;;;4905123;28;97777;-43
2022/05/27 06:10:19;;;;;;;90.20;53.35;;;20.20;59.80;;;;;;4907017;28;94765;-42
2022/05/27 06:12:45;;;;;;;89.90;53.20;;;20.30;59.70;;;;;;4904579;28;95309;-46
2022/05/27 06:15:12;;;;;;;91.15;53.47;;;20.30;59.60;;;;;;4912466;28;95007;-42
2022/05/27 06:17:38;;;;;;;89.22;53.00;;;20.30;59.60;;;;;;4912879;28;95241;-44
2022/05/27 06:20:05;;;;;;;90.35;53.35;;;20.30;59.30;;;;;;4907292;28;96448;-42
2022/05/27 06:22:32;;;;;;;91.50;53.38;;;20.40;59.30;;;;;;4912487;28;95555;-41
2022/05/27 06:24:59;;;;;;;90.78;53.15;;;20.40;59.10;;;;;;4907062;28;97845;-41
2022/05/27 06:27:26;;;;;;;91.57;53.42;;;20.50;59.10;;;;;;4917717;28;95325;-41
2022/05/27 06:34:23;;;;;;;90.53;53.40;;;20.50;59.10;;;;;;4905780;28;100449;-46
2022/05/27 06:35:40;;;;;;;91.28;53.17;;;20.50;59.10;;;;;;4914557;28;95639;-41
2022/05/27 06:38:07;;;;;;;89.97;53.13;;;20.50;58.90;;;;;;4911164;28;96591;-41
2022/05/27 06:40:32;;;;;;;90.40;53.55;;;20.50;58.90;;;;;;4924796;28;95464;-41
2022/05/27 06:42:58;;;;;;;94.30;53.97;;;20.50;58.70;;;;;;4912552;28;96897;-44
2022/05/27 06:45:24;;;;;;;89.45;53.35;;;20.60;58.70;;;;;;4914874;28;96527;-44
2022/05/27 06:47:50;;;;;;;90.53;53.42;;;20.60;58.80;;;;;;4910231;28;95221;-41
2022/05/27 06:50:16;;;;;;;89.80;53.45;;;20.60;58.60;;;;;;4912507;28;96753;-42
2022/05/27 06:52:42;;;;;;;92.18;53.72;;;20.70;58.60;;;;;;4907013;28;95080;-42
2022/05/27 06:55:11;;;;;;;91.10;53.33;;;20.70;58.50;;;;;;4904135;28;95237;-43
2022/05/27 06:57:37;;;;;;;93.18;53.70;;;20.70;58.60;;;;;;4914050;28;95260;-41
2022/05/27 07:00:06;;;;;;;91.22;53.75;;;20.70;58.40;;;;;;4913704;28;95746;-41
2022/05/27 07:02:31;;;;;;;92.95;53.53;;;20.70;58.30;;;;;;4907648;28;98077;-41
2022/05/27 07:04:57;;;;;;;89.57;53.42;;;20.70;58.50;;;;;;4911263;28;95257;-41
2022/05/27 07:07:27;;;;;;;88.80;52.92;;;20.60;58.70;;;;;;4918917;28;97355;-41
2022/05/27 07:09:52;;;;;;;90.43;53.55;;;20.70;58.60;;;;;;4904562;28;96952;-42
2022/05/27 07:12:18;;;;;;;89.93;53.40;;;20.70;58.50;;;;;;4909100;28;95695;-43
2022/05/27 07:14:44;;;;;;;89.47;53.30;;;20.70;58.40;;;;;;4903398;28;98165;-41
2022/05/27 07:17:09;;;;;;;91.72;53.70;;;20.70;58.30;;;;;;4904074;28;96027;-42
2022/05/27 07:19:39;;;;;;;89.60;53.42;;;20.70;58.30;;;;;;4899333;28;97889;-43
2022/05/27 07:22:06;;;;;;;89.75;53.28;;;20.70;58.30;;;;;;4912543;28;96154;-43
2022/05/27 07:24:32;;;;;;;92.72;54.00;;;20.80;58.30;;;;;;4910013;28;95207;-43
2022/05/27 07:26:58;;;;;;;89.75;53.53;;;20.80;58.30;;;;;;4905677;28;94668;-42
2022/05/27 07:29:23;;;;;;;91.80;53.85;;;20.80;58.10;;;;;;4911307;28;95295;-43
2022/05/27 07:31:49;;;;;;;90.75;53.65;;;20.90;58.00;;;;;;4913599;28;99995;-41
2022/05/27 07:34:15;;;;;;;91.32;53.70;;;21.00;57.80;;;;;;4906262;28;97483;-41
2022/05/27 07:36:41;;;;;;;91.32;53.90;;;21.10;57.60;;;;;;4924069;28;95773;-42
2022/05/27 07:39:07;;;;;;;90.05;53.60;;;21.00;57.60;;;;;;4909497;28;101536;-41
2022/05/27 07:41:33;;;;;;;91.45;53.72;;;21.00;57.70;;;;;;4913641;28;99862;-41
2022/05/27 07:44:01;;;;;;;89.95;53.80;;;21.00;57.70;;;;;;4906464;28;97463;-41
2022/05/27 07:46:29;;;;;;;89.95;53.75;;;21.10;57.80;;;;;;4913746;28;95022;-42
2022/05/27 07:48:55;;;;;;;91.32;53.75;;;21.10;57.70;;;;;;4910083;28;96818;-42
2022/05/27 07:51:21;;;;;;;90.03;53.78;;;21.10;57.70;;;;;;4910542;28;96247;-41
2022/05/27 07:53:46;;;;;;;91.60;54.13;;;21.10;57.70;;;;;;4906081;28;95796;-41
2022/05/27 07:56:12;;;;;;;94.70;54.03;;;21.10;57.50;;;;;;4910231;28;96489;-42
2022/05/27 07:58:38;;;;;;;92.43;54.13;;;21.20;57.40;;;;;;4907835;28;95443;-42
2022/05/27 08:01:05;;;;;;;91.07;54.25;;;21.30;57.20;;;;;;4902651;28;98570;-41
2022/05/27 08:03:31;;;;;;;91.60;54.17;;;21.40;57.10;;;;;;4913432;28;96475;-41
2022/05/27 08:05:59;;;;;;;92.50;54.28;;;21.30;56.90;;;;;;4910751;28;94745;-42
2022/05/27 08:08:25;;;;;;;93.80;54.15;;;21.40;56.90;;;;;;4917650;28;95267;-42
2022/05/27 08:10:51;;;;;;;92.85;54.25;;;21.40;56.90;;;;;;4913979;28;95783;-41
2022/05/27 08:13:17;;;;;;;91.15;54.15;;;21.40;56.70;;;;;;4913335;28;95503;-41
2022/05/27 08:15:43;;;;;;;92.40;54.30;;;21.50;56.70;;;;;;4927152;28;100543;-41
2022/05/27 08:18:09;;;;;;;91.35;53.90;;;21.50;56.70;;;;;;4918619;28;96792;-41
2022/05/27 08:20:36;;;;;;;91.57;54.60;;;21.50;56.70;;;;;;4925959;28;95433;-43
2022/05/27 08:23:02;;;;;;;92.80;54.03;;;21.40;56.60;;;;;;4910092;28;95648;-41
2022/05/27 08:25:29;;;;;;;91.40;54.38;;;21.50;57.10;;;;;;4920610;28;95441;-41
2022/05/27 08:27:55;;;;;;;91.53;54.38;;;21.50;57.20;;;;;;4920261;28;95754;-43
2022/05/27 08:30:31;;;;;;;92.47;54.17;;;21.50;57.40;;;;;;4926892;28;96207;-42
2022/05/27 08:33:01;;;;;;;94.15;54.58;;;21.60;57.60;;;;;;4919726;28;96657;-43
2022/05/27 08:38:19;;;;;;;92.03;54.00;;;21.60;57.80;;;;;;4918181;28;97823;-41
2022/05/27 08:41:00;;;;;;;93.05;54.10;;;21.50;57.50;;;;;;4914116;28;95851;-43
2022/05/27 08:43:47;;;;;;;91.93;54.47;;;21.60;57.40;;;;;;4911453;28;98537;-41
2022/05/27 08:46:45;;;;;;;94.00;54.25;;;21.60;57.40;;;;;;4925386;28;94519;-43
2022/05/27 08:49:21;;;;;;;91.90;54.35;;;21.60;57.50;;;;;;4924355;28;95313;-41
2022/05/27 08:51:52;;;;;;;93.28;54.35;;;21.70;57.20;;;;;;4926796;28;95643;-43
2022/05/27 08:54:26;;;;;;;91.80;54.25;;;21.70;57.10;;;;;;4924248;28;95812;-41
2022/05/27 08:59:40;;;;;;;93.18;54.28;;;21.80;56.30;;;;;;4926530;28;95626;-41
2022/05/27 09:02:40;;;;;;;91.45;54.20;;;21.90;56.40;;;;;;4920512;28;95045;-42
2022/05/27 09:05:22;;;;;;;92.40;54.40;;;21.80;56.30;;;;;;4923445;28;96604;-45
2022/05/27 09:08:05;;;;;;;92.55;54.22;;;21.80;56.60;;;;;;4901015;28;97163;-41
2022/05/27 09:11:07;;;;;;;91.85;54.58;;;21.80;56.60;;;;;;4910497;28;96463;-41
2022/05/27 09:13:52;;;;;;;93.80;54.67;;;21.80;56.50;;;;;;4909727;28;94761;-40
2022/05/27 09:16:46;;;;;;;96.22;55.00;;;21.80;56.80;;;;;;4926512;28;95000;-42
2022/05/27 09:19:20;;;;;;;94.65;54.83;;;21.80;56.40;;;;;;4931408;28;95569;-41
2022/05/27 09:21:45;;;;;;;97.13;54.85;;;21.80;57.00;;;;;;4921541;28;97222;-42
2022/05/27 09:24:16;;;;;;;96.55;55.03;;;21.80;56.90;;;;;;4918469;28;100715;-40
2022/05/27 09:26:54;;;;;;;94.82;54.67;;;21.80;56.90;;;;;;4913746;28;98136;-40
2022/05/27 09:29:47;;;;;;;93.68;54.25;;;21.80;56.80;;;;;;4925338;28;97864;-44
2022/05/27 09:32:40;;;;;;;95.97;54.70;;;21.80;56.80;;;;;;4912926;28;95501;-41
2022/05/27 09:35:11;;;;;;;94.03;54.63;;;21.80;57.00;;;;;;4919586;28;97728;-40
2022/05/27 09:37:45;;;;;;;93.60;54.60;;;21.80;56.80;;;;;;4918472;28;98058;-43
2022/05/27 09:40:17;;;;;;;95.40;54.75;;;21.90;56.10;;;;;;4923481;28;94860;-40
2022/05/27 09:43:11;;;;;;;99.68;55.33;;;22.00;56.50;;;;;;4933702;28;95192;-41
2022/05/27 09:45:37;;;;;;;96.43;55.00;;;22.10;56.80;;;;;;4926085;28;95256;-41
2022/05/27 09:48:06;;;;;;;98.97;55.33;;;22.20;56.30;;;;;;4918263;28;96022;-41
2022/05/27 09:50:41;;;;;;;95.40;55.10;;;22.20;56.20;;;;;;4920958;28;96832;-44
2022/05/27 09:53:11;;;;;;;95.53;55.00;;;22.20;56.10;;;;;;4917606;28;96333;-41
2022/05/27 09:55:40;;;;;;;94.40;54.90;;;22.20;56.20;;;;;;4921016;28;97351;-41
2022/05/27 09:58:07;;;;;;;94.45;54.83;;;22.10;56.40;;;;;;4920962;28;94761;-44
2022/05/27 10:00:53;;;;;;;93.97;54.75;;;22.10;56.50;;;;;;4918727;28;95150;-40
2022/05/27 10:03:38;;;;;;;93.75;54.70;;;22.10;56.30;;;;;;4912067;28;102445;-40
2022/05/27 10:06:11;;;;;;;94.68;54.90;;;22.20;56.00;;;;;;4921837;28;94271;-43
2022/05/27 10:08:40;;;;;;;94.10;55.10;;;22.20;55.80;;;;;;4914411;28;97095;-40
2022/05/27 10:11:09;;;;;;;94.72;54.72;;;22.30;55.70;;;;;;4910973;28;95137;-41
2022/05/27 10:13:35;;;;;;;95.40;54.90;;;22.30;55.50;;;;;;4907264;28;99775;-41
2022/05/27 10:16:11;;;;;;;95.68;55.10;;;22.30;55.40;;;;;;4903323;28;97314;-40
2022/05/27 10:18:38;;;;;;;94.80;54.72;;;22.20;55.70;;;;;;4904382;28;97622;-41
2022/05/27 10:21:16;;;;;;;94.75;54.42;;;22.20;56.20;;;;;;4908650;28;95271;-42
2022/05/27 10:23:45;;;;;;;95.25;55.00;;;22.10;56.30;;;;;;4914882;28;95121;-40
2022/05/27 10:26:23;;;;;;;94.45;55.00;;;22.00;56.10;;;;;;4909721;28;95771;-41
2022/05/27 10:28:57;;;;;;;95.93;54.67;;;22.00;56.50;;;;;;4907762;28;95141;-42
2022/05/27 10:31:24;;;;;;;93.65;54.72;;;22.00;55.80;;;;;;4902578;28;96038;-42
2022/05/27 10:33:50;;;;;;;94.70;54.88;;;22.10;56.30;;;;;;4896621;28;95938;-40
2022/05/27 10:36:27;;;;;;;93.47;54.80;;;22.10;56.00;;;;;;4897734;28;95514;-41
2022/05/27 10:39:00;;;;;;;93.72;54.63;;;22.10;55.90;;;;;;4907727;28;97005;-41
2022/05/27 10:41:56;;;;;;;94.82;54.75;;;22.10;55.90;;;;;;4903991;28;97814;-40
2022/05/27 10:44:48;;;;;;;92.40;54.28;;;22.10;56.10;;;;;;4912857;28;96327;-40
2022/05/27 10:47:51;;;;;;;93.65;54.78;;;22.10;56.30;;;;;;4898003;28;98448;-42
2022/05/27 10:50:31;;;;;;;95.70;54.70;;;22.00;56.40;;;;;;4914906;28;95702;-40
2022/05/27 10:53:31;;;;;;;93.03;54.50;;;22.00;56.60;;;;;;4909632;28;95939;-40
2022/05/27 10:56:09;;;;;;;93.07;54.60;;;22.10;56.40;;;;;;4900403;28;95703;-41
2022/05/27 11:04:33;;;;;;;92.55;54.30;;;22.10;55.90;;;;;;4914926;28;95211;-43
2022/05/27 11:07:17;;;;;;;97.38;54.85;;;22.20;55.80;;;;;;4903233;28;101913;-40
2022/05/27 11:10:08;;;;;;;98.28;55.25;;;22.30;55.70;;;;;;4893436;28;96400;-41
2022/05/27 11:16:05;;;;;;;95.65;55.33;;;22.50;55.00;;;;;;4907297;28;96350;-41
2022/05/27 11:18:45;;;;;;;93.60;54.92;;;22.50;54.90;;;;;;4905855;28;97790;-40
2022/05/27 11:21:36;;;;;;;93.43;54.77;;;22.50;54.70;;;;;;4911221;28;97988;-42
2022/05/27 11:24:11;;;;;;;93.53;54.97;;;22.50;55.00;;;;;;4908245;28;96243;-40
2022/05/27 11:27:14;;;;;;;94.45;54.72;;;22.50;54.90;;;;;;4902243;28;100104;-41
2022/05/27 11:29:43;;;;;;;94.18;54.83;;;22.50;54.90;;;;;;4902503;28;95806;-40
2022/05/27 11:32:26;;;;;;;94.30;54.97;;;22.50;55.00;;;;;;4898919;28;96009;-41
2022/05/27 11:35:46;;;;;;;93.28;54.65;;;22.50;54.90;;;;;;4917649;28;96355;-40
2022/05/27 11:38:14;;;;;;;94.47;54.92;;;22.50;55.10;;;;;;4913205;28;94839;-40
2022/05/27 11:40:58;;;;;;;93.47;54.65;;;22.50;54.90;;;;;;4916254;28;96259;-41
2022/05/27 11:43:43;;;;;;;96.18;54.92;;;22.50;54.90;;;;;;4907950;28;96574;-40
2022/05/27 11:46:31;;;;;;;94.78;54.67;;;22.50;55.00;;;;;;4907533;28;101563;-43
2022/05/27 11:49:18;;;;;;;93.80;55.22;;;22.50;55.10;;;;;;4914219;28;95225;-41
2022/05/27 11:52:05;;;;;;;93.88;54.95;;;22.50;54.90;;;;;;4910915;28;98785;-42
2022/05/27 11:54:41;;;;;;;94.18;54.72;;;22.50;54.90;;;;;;4914342;28;95110;-42
2022/05/27 11:57:23;;;;;;;93.80;54.60;;;22.60;55.00;;;;;;4917576;28;96561;-41
2022/05/27 12:00:05;;;;;;;92.97;54.65;;;22.50;54.80;;;;;;4917303;28;95329;-43
2022/05/27 12:02:38;;;;;;;95.38;54.72;;;22.50;55.00;;;;;;4909926;28;96645;-44
2022/05/27 12:05:17;;;;;;;93.35;54.70;;;22.50;54.80;;;;;;4907162;28;95664;-41
2022/05/27 12:08:15;;;;;;;94.03;54.78;;;22.60;54.90;;;;;;4910847;28;95246;-40
2022/05/27 12:10:47;;;;;;;93.93;55.15;;;22.60;54.50;;;;;;4910105;28;95443;-42
2022/05/27 12:13:21;;;;;;;93.43;54.63;;;22.60;54.30;;;;;;4922434;28;97562;-43
2022/05/27 12:15:57;;;;;;;95.10;55.25;;;22.60;54.80;;;;;;4921190;28;95814;-40
2022/05/27 12:18:47;;;;;;;94.07;54.83;;;22.60;54.00;;;;;;4920448;28;95212;-40
2022/05/27 12:21:25;;;;;;;93.97;54.90;;;22.50;54.50;;;;;;4918829;28;94542;-41
2022/05/27 12:23:58;;;;;;;94.00;54.88;;;22.60;54.00;;;;;;4909165;28;96228;-40
2022/05/27 12:26:30;;;;;;;95.65;55.28;;;22.60;54.70;;;;;;4903154;28;96027;-42
2022/05/27 12:28:58;;;;;;;94.80;54.88;;;22.60;54.10;;;;;;4908222;28;97515;-41
2022/05/27 12:31:24;;;;;;;95.18;55.20;;;22.70;54.00;;;;;;4916799;28;95288;-40
2022/05/27 12:33:50;;;;;;;96.30;55.42;;;22.70;53.90;;;;;;4908225;28;95445;-42
2022/05/27 12:36:24;;;;;;;95.85;55.33;;;22.70;54.20;;;;;;4919847;28;95891;-41
2022/05/27 12:38:52;;;;;;;96.57;55.50;;;22.70;54.30;;;;;;4915008;28;97926;-40
2022/05/27 12:41:40;;;;;;;95.00;55.05;;;22.70;54.50;;;;;;4911728;28;97937;-43
2022/05/27 12:44:20;;;;;;;95.28;54.92;;;22.70;54.00;;;;;;4913946;28;96997;-40
2022/05/27 12:46:53;;;;;;;95.10;55.22;;;22.70;53.80;;;;;;4909061;28;98342;-40
2022/05/27 12:49:36;;;;;;;94.03;54.97;;;22.80;53.80;;;;;;4913024;28;95299;-40
2022/05/27 12:52:04;;;;;;;95.40;55.03;;;22.70;54.40;;;;;;4918718;28;95761;-40
2022/05/27 12:54:42;;;;;;;94.50;54.85;;;22.70;53.60;;;;;;4904766;28;97383;-40
2022/05/27 13:03:40;;;;;;;95.40;55.03;;;22.60;54.00;;;;;;4904881;28;102092;-40
2022/05/27 13:06:17;;;;;;;94.80;54.78;;;22.60;53.40;;;;;;4904724;28;95440;-42
2022/05/27 13:08:46;;;;;;;95.00;54.83;;;22.60;54.20;;;;;;4910116;28;97051;-40
2022/05/27 13:11:27;;;;;;;93.88;54.83;;;22.60;54.30;;;;;;4908705;28;95940;-44
2022/05/27 13:14:12;;;;;;;;;;;22.70;54.60;;;;;;4904460;28;95553;-40
2022/05/27 13:16:43;;;;;;;95.28;55.10;;;22.70;54.30;;;;;;4917171;28;97689;-40
2022/05/27 13:19:26;;;;;;;97.30;55.22;;;22.70;54.30;;;;;;4920008;28;95270;-40
2022/05/27 13:21:52;;;;;;;96.43;55.25;;;22.80;54.00;;;;;;4906394;28;96361;-41
2022/05/27 13:24:17;;;;;;;96.50;55.47;;;22.90;54.00;;;;;;4905805;28;95507;-41
2022/05/27 13:26:56;;;;;;;94.68;55.08;;;22.90;53.80;;;;;;4897686;28;95390;-41
2022/05/27 13:29:39;;;;;;;96.68;55.30;;;22.90;53.70;;;;;;4901588;28;95598;-41